Terminal Aerodrome Forecast
Issued by NWS

Home | Current Version | Previous Version | Text Only | Print | Product List | Glossary On
Versions: 1 2 3 4 5 6 7 8 9 10 11 12 13 14 15 16 17 18 19 20 21 22 23 24 25 26
000
FTAK31 PAJN 221100
TAFAYA
TAF
PAYA 221136Z 2212/2312 00000KT 2SM BR SCT001
      TEMPO 2212/2215 1/2SM FG BKN001
     FM221500 14004KT 6SM BR FEW004 SCT070
     FM221900 24006KT P6SM SCT090
     FM230300 25003KT P6SM BKN100
     FM231000 12006KT P6SM OVC100=

USA.gov is the U.S. government's official web portal to all federal, state and local government web resources and services.